Time;durP1;ratioP1;P1;durP2;ratioP2;P2;SDS_P1;SDS_P2;PMS_P1;PMS_P2;Temp;Humidity;BMP_temperature;BMP_pressure;BME280_temperature;BME280_humidity;BME280_pressure;Samples;Min_cycle;Max_cycle;Signal;HPM_P1;HPM_P2
2022/01/07 00:00:59;;;;;;;6.47;6.00;;;;;;;23.12;31.51;95052.19;4913620;28;102857;-54
2022/01/07 00:03:26;;;;;;;6.70;6.20;;;;;;;23.10;30.87;95049.81;4917430;28;104462;-54
2022/01/07 00:05:51;;;;;;;6.67;6.17;;;;;;;23.12;31.20;95060.19;4915058;28;102895;-54
2022/01/07 00:08:17;;;;;;;7.03;6.43;;;;;;;23.09;31.00;95056.25;4896065;28;102871;-54
2022/01/07 00:10:43;;;;;;;6.70;6.20;;;;;;;23.09;31.25;95050.91;4899273;28;103265;-54
2022/01/07 00:13:08;;;;;;;6.80;6.27;;;;;;;23.10;30.83;95060.47;4917992;28;102782;-54
2022/01/07 00:15:34;;;;;;;6.33;5.93;;;;;;;23.09;31.00;95060.78;4916882;28;102748;-54
2022/01/07 00:17:59;;;;;;;6.43;5.93;;;;;;;23.08;30.69;95065.34;4908384;28;102831;-54
2022/01/07 00:20:25;;;;;;;5.70;5.30;;;;;;;23.09;31.32;95074.13;4905961;28;104828;-54
2022/01/07 00:22:52;;;;;;;5.80;5.40;;;;;;;23.09;31.23;95076.78;4925424;28;102813;-54
2022/01/07 00:25:18;;;;;;;7.20;6.70;;;;;;;23.09;30.83;95079.44;4929907;28;103286;-54
2022/01/07 00:27:44;;;;;;;6.70;6.23;;;;;;;23.07;30.85;95077.09;4904275;28;102798;-54
2022/01/07 00:30:12;;;;;;;7.13;6.63;;;;;;;23.07;30.78;95073.63;4917652;28;103299;-54
2022/01/07 00:32:38;;;;;;;7.10;6.60;;;;;;;23.05;30.89;95073.94;4900974;28;103407;-54
2022/01/07 00:35:06;;;;;;;6.63;6.13;;;;;;;23.06;30.81;95080.06;4904820;28;102941;-54
2022/01/07 00:37:32;;;;;;;7.17;6.57;;;;;;;23.06;31.10;95072.06;4897571;28;102945;-54
2022/01/07 00:39:57;;;;;;;7.67;7.07;;;;;;;23.04;30.91;95071.59;4905400;28;103319;-54
2022/01/07 00:42:23;;;;;;;9.50;8.70;;;;;;;23.05;31.00;95081.16;4898561;28;103335;-54
2022/01/07 00:44:49;;;;;;;9.03;8.33;;;;;;;23.04;30.89;95069.69;4899019;28;102690;-54
2022/01/07 00:47:16;;;;;;;7.57;6.97;;;;;;;23.05;30.91;95071.28;4916283;28;103244;-54
2022/01/07 00:49:42;;;;;;;8.70;8.00;;;;;;;23.03;30.99;95078.78;4914755;28;103405;-54
2022/01/07 00:52:08;;;;;;;9.00;8.30;;;;;;;23.04;30.76;95077.69;4898545;28;102826;-54
2022/01/07 00:54:33;;;;;;;8.90;8.20;;;;;;;23.05;30.63;95081.16;4880392;28;102905;-54
2022/01/07 00:56:59;;;;;;;8.30;7.60;;;;;;;23.05;30.75;95081.16;4898849;28;103246;-54
2022/01/07 00:59:24;;;;;;;8.53;7.73;;;;;;;23.04;30.51;95091.03;4898129;28;102646;-54
2022/01/07 01:01:50;;;;;;;8.67;7.97;;;;;;;23.03;30.84;95092.13;4898979;28;103264;-54
2022/01/07 01:04:15;;;;;;;8.33;7.73;;;;;;;23.04;30.91;95090.25;4898264;28;103103;-54
2022/01/07 01:06:41;;;;;;;8.90;8.20;;;;;;;23.02;31.09;95095.88;4884583;28;103265;-54
2022/01/07 01:09:10;;;;;;;8.83;8.13;;;;;;;23.01;30.96;95086.31;4899563;28;103280;-54
2022/01/07 01:11:36;;;;;;;8.83;8.13;;;;;;;23.00;30.52;95090.03;4903646;28;102881;-54
2022/01/07 01:14:02;;;;;;;8.40;7.70;;;;;;;23.02;30.49;95095.09;4897675;28;102971;-54
2022/01/07 01:16:28;;;;;;;9.03;8.23;;;;;;;22.99;31.03;95085.78;4902647;28;103330;-55
2022/01/07 01:18:54;;;;;;;8.47;7.87;;;;;;;23.01;31.00;95090.81;4917262;28;103074;-54
2022/01/07 01:21:19;;;;;;;8.37;7.77;;;;;;;22.98;30.79;95092.22;4906370;28;103801;-54
2022/01/07 01:23:45;;;;;;;8.53;7.93;;;;;;;22.98;30.77;95089.56;4897087;28;103026;-54
2022/01/07 01:26:14;;;;;;;8.73;8.03;;;;;;;22.98;30.75;95088.75;4897988;28;103563;-54
2022/01/07 01:28:41;;;;;;;8.37;7.77;;;;;;;23.00;30.45;95103.34;4898361;28;103546;-54
2022/01/07 01:31:07;;;;;;;7.93;7.33;;;;;;;22.99;30.58;95104.44;4907200;28;103294;-54
2022/01/07 01:33:33;;;;;;;8.63;7.93;;;;;;;22.98;30.77;95094.09;4915771;28;103999;-54
2022/01/07 01:35:59;;;;;;;8.00;7.40;;;;;;;22.95;30.51;95098.16;4916036;28;103192;-54
2022/01/07 01:38:27;;;;;;;7.90;7.30;;;;;;;22.98;30.34;95100.22;4898618;28;103550;-54
2022/01/07 01:40:53;;;;;;;7.60;7.00;;;;;;;22.97;30.25;95106.63;4915246;28;102810;-54
2022/01/07 01:43:19;;;;;;;7.33;6.73;;;;;;;22.97;30.72;95098.63;4912544;28;102822;-54
2022/01/07 01:45:44;;;;;;;8.07;7.47;;;;;;;22.97;30.50;95092.53;4897112;28;102727;-54
2022/01/07 01:48:10;;;;;;;10.90;7.80;;;;;;;22.96;30.53;95091.75;4916549;28;102692;-54
2022/01/07 01:50:35;;;;;;;7.67;7.03;;;;;;;22.94;30.63;95099.25;4908611;28;103784;-54
2022/01/07 01:53:01;;;;;;;8.07;7.47;;;;;;;22.95;30.69;95100.81;4902657;28;103352;-54
2022/01/07 01:55:28;;;;;;;7.17;6.67;;;;;;;22.94;30.27;95090.47;4903306;28;103515;-54
2022/01/07 01:57:54;;;;;;;7.30;6.80;;;;;;;22.92;30.63;95093.44;4905341;28;102726;-54
2022/01/07 02:00:22;;;;;;;7.77;7.17;;;;;;;22.93;30.38;95100.34;4901535;28;102870;-54
2022/01/07 02:02:48;;;;;;;6.97;6.47;;;;;;;22.94;30.81;95101.13;4904731;28;102708;-54
2022/01/07 02:05:14;;;;;;;9.03;8.17;;;;;;;22.92;30.30;95093.44;4906954;28;102711;-54
2022/01/07 02:07:41;;;;;;;6.90;6.40;;;;;;;22.92;30.49;95092.66;4916215;28;102892;-54
2022/01/07 02:10:09;;;;;;;8.50;7.80;;;;;;;22.92;30.53;95103.31;4913844;28;103581;-54
2022/01/07 02:12:35;;;;;;;8.00;7.40;;;;;;;22.93;30.46;95097.69;4916092;28;103465;-54
2022/01/07 02:15:02;;;;;;;7.83;7.23;;;;;;;22.92;30.43;95101.44;4911125;28;102782;-54
2022/01/07 02:17:27;;;;;;;7.47;6.93;;;;;;;22.90;30.32;95103.63;4896233;28;103306;-54
2022/01/07 02:19:56;;;;;;;8.67;7.97;;;;;;;22.92;30.37;95112.09;4912513;28;103232;-54
2022/01/07 02:22:26;;;;;;;8.80;8.13;;;;;;;22.91;30.38;95115.84;4910488;28;102960;-54
2022/01/07 02:24:53;;;;;;;9.33;8.53;;;;;;;22.90;30.34;95122.25;4907998;28;103640;-54
2022/01/07 02:27:19;;;;;;;11.00;10.00;;;;;;;22.92;30.39;95119.31;4906130;28;102837;-54
2022/01/07 02:29:49;;;;;;;11.87;10.97;;;;;;;22.95;30.59;95124.00;4913399;28;103584;-54
2022/01/07 02:32:16;;;;;;;11.63;10.73;;;;;;;22.92;30.45;95120.09;4899366;28;103749;-54
2022/01/07 02:34:41;;;;;;;10.43;9.63;;;;;;;22.90;30.11;95122.25;4907742;28;102796;-54
2022/01/07 02:37:07;;;;;;;12.27;11.27;;;;;;;22.90;30.42;95124.94;4914689;28;102928;-54
2022/01/07 02:39:33;;;;;;;12.50;11.50;;;;;;;22.95;30.30;95124.81;4903895;28;102902;-54
2022/01/07 02:41:59;;;;;;;11.70;10.80;;;;;;;22.93;30.39;95131.53;4909008;28;102758;-54
2022/01/07 02:44:24;;;;;;;11.30;10.40;;;;;;;22.94;30.52;95135.75;4902032;28;102885;-54
2022/01/07 02:46:50;;;;;;;12.80;11.63;;;;;;;22.94;30.50;95133.88;4895614;28;103772;-54
2022/01/07 02:49:18;;;;;;;13.00;11.90;;;;;;;22.93;30.25;95140.31;4902568;28;102744;-53
2022/01/07 02:51:45;;;;;;;11.73;10.80;;;;;;;22.91;30.41;95139.81;4900408;28;103147;-53
2022/01/07 02:54:11;;;;;;;11.80;10.90;;;;;;;22.89;30.77;95143.88;4907601;28;102755;-53
2022/01/07 02:56:38;;;;;;;12.17;11.17;;;;;;;22.88;30.28;95140.44;4905878;28;102796;-53
2022/01/07 02:59:05;;;;;;;12.17;11.10;;;;;;;22.88;30.36;95137.78;4901029;28;102956;-53
2022/01/07 03:01:31;;;;;;;11.53;10.63;;;;;;;22.88;30.31;95139.66;4905150;28;103380;-53
2022/01/07 03:03:57;;;;;;;12.17;11.17;;;;;;;22.87;30.24;95149.50;4906409;28;103565;-53
2022/01/07 03:06:22;;;;;;;12.40;11.40;;;;;;;22.88;30.71;95143.09;4897259;28;102906;-53
2022/01/07 03:08:49;;;;;;;10.83;9.97;;;;;;;22.85;30.43;95149.03;4905499;28;103678;-53
2022/01/07 03:11:15;;;;;;;11.30;10.40;;;;;;;22.87;30.59;95143.41;4901590;28;102912;-53
2022/01/07 03:13:41;;;;;;;11.80;10.90;;;;;;;22.87;30.35;95152.19;4895662;28;103375;-53
2022/01/07 03:16:06;;;;;;;11.13;10.33;;;;;;;22.87;30.20;95148.72;4896103;28;103589;-54
2022/01/07 03:18:33;;;;;;;13.07;12.03;;;;;;;22.86;30.49;95142.63;4901731;28;102755;-54
2022/01/07 03:21:00;;;;;;;10.20;9.37;;;;;;;22.87;30.08;95144.19;4905414;28;103101;-54
2022/01/07 03:23:26;;;;;;;11.40;10.50;;;;;;;22.86;30.48;95142.63;4893667;28;102873;-54
2022/01/07 03:25:52;;;;;;;11.00;10.10;;;;;;;22.87;30.39;95148.72;4898010;28;103363;-53
2022/01/07 03:28:18;;;;;;;10.83;10.03;;;;;;;22.85;30.61;95154.38;4895759;28;103279;-53
2022/01/07 03:30:43;;;;;;;11.73;10.77;;;;;;;22.85;30.06;95151.69;4895333;28;103257;-54
2022/01/07 03:33:09;;;;;;;11.10;10.20;;;;;;;22.85;30.63;95151.69;4896038;28;103453;-53
2022/01/07 03:35:36;;;;;;;11.30;10.40;;;;;;;22.86;30.49;95160.47;4895997;28;102980;-54
2022/01/07 03:38:02;;;;;;;10.57;9.77;;;;;;;22.85;30.08;95162.34;4895355;28;102961;-54
2022/01/07 03:40:28;;;;;;;11.43;10.53;;;;;;;22.85;30.08;95161.56;4895503;28;103243;-53
2022/01/07 03:42:54;;;;;;;10.80;10.00;;;;;;;22.85;30.07;95159.69;4896805;28;102771;-53
2022/01/07 03:45:21;;;;;;;10.70;9.90;;;;;;;22.85;30.47;95173.00;4909003;28;104573;-53
2022/01/07 03:47:47;;;;;;;10.97;10.10;;;;;;;22.85;29.98;95173.00;4895619;28;103231;-53
2022/01/07 03:50:16;;;;;;;10.63;9.83;;;;;;;22.90;30.21;95174.75;4894221;28;105496;-54
2022/01/07 03:52:42;;;;;;;10.53;9.73;;;;;;;22.90;30.03;95169.44;4902351;28;102730;-54
2022/01/07 03:55:10;;;;;;;10.10;9.33;;;;;;;22.87;30.42;95176.16;4898243;28;103283;-54
2022/01/07 03:57:36;;;;;;;9.73;8.93;;;;;;;22.88;30.55;95183.06;4909460;28;102762;-54
2022/01/07 04:00:05;;;;;;;9.50;8.70;;;;;;;22.87;30.43;95173.50;4917383;28;102761;-54
2022/01/07 04:02:31;;;;;;;9.23;8.53;;;;;;;22.86;30.51;95185.25;4908039;28;102780;-54
2022/01/07 04:04:57;;;;;;;8.60;7.93;;;;;;;22.87;30.29;95188.69;4918462;28;103302;-54
2022/01/07 04:07:22;;;;;;;8.57;7.90;;;;;;;22.87;30.49;95186.03;4909919;28;103269;-54
2022/01/07 04:09:48;;;;;;;6.10;5.47;;;;;;;22.85;29.79;95181.00;4902716;28;102814;-53
2022/01/07 04:12:14;;;;;;;7.07;6.57;;;;;;;22.90;30.37;95185.41;4902754;28;103036;-53
2022/01/07 04:14:39;;;;;;;6.60;6.10;;;;;;;22.92;30.39;95193.91;4937000;28;103225;-53
2022/01/07 04:17:07;;;;;;;7.13;6.43;;;;;;;22.96;30.09;95200.97;4911834;28;102686;-54
2022/01/07 04:19:33;;;;;;;6.83;6.10;;;;;;;22.99;30.24;95210.25;4901118;28;102860;-54
2022/01/07 04:21:59;;;;;;;6.20;5.70;;;;;;;23.00;30.35;95214.50;4898853;28;102986;-54
2022/01/07 04:24:24;;;;;;;6.20;5.60;;;;;;;23.01;30.65;95214.22;4904264;28;103127;-54
2022/01/07 04:26:50;;;;;;;5.97;5.57;;;;;;;23.01;30.23;95211.53;4905715;28;103009;-54
2022/01/07 04:29:16;;;;;;;5.77;5.27;;;;;;;23.03;30.16;95214.69;4903003;28;103003;-55
2022/01/07 04:31:41;;;;;;;5.60;5.20;;;;;;;23.04;30.92;95218.16;4904666;28;103192;-54
2022/01/07 04:34:07;;;;;;;5.90;5.40;;;;;;;23.03;30.60;95217.38;4912863;28;103307;-54
2022/01/07 04:36:32;;;;;;;4.90;4.40;;;;;;;23.03;30.55;95216.56;4915234;28;102800;-54
2022/01/07 04:38:58;;;;;;;5.07;4.67;;;;;;;23.04;30.92;95207.50;4908936;28;102695;-54
2022/01/07 04:41:23;;;;;;;5.50;5.00;;;;;;;23.00;30.75;95217.16;4913058;28;103036;-54
2022/01/07 04:43:49;;;;;;;5.00;4.60;;;;;;;23.03;30.87;95221.91;4923285;28;103554;-54
2022/01/07 04:46:15;;;;;;;5.57;5.20;;;;;;;23.06;30.98;95222.09;4915126;28;104618;-54
2022/01/07 04:48:40;;;;;;;5.03;4.50;;;;;;;23.04;30.48;95216.28;4917157;28;103323;-54
2022/01/07 04:51:06;;;;;;;5.57;4.67;;;;;;;23.04;30.76;95218.94;4912931;28;102847;-54
2022/01/07 04:53:31;;;;;;;5.23;4.17;;;;;;;23.07;30.56;95217.53;4900171;28;102848;-54
2022/01/07 04:55:58;;;;;;;5.40;4.57;;;;;;;23.06;30.79;95224.75;4898439;28;102779;-54
2022/01/07 04:58:24;;;;;;;4.67;4.27;;;;;;;23.08;30.72;95219.91;4898216;28;103379;-54
2022/01/07 05:00:50;;;;;;;4.60;4.30;;;;;;;23.10;30.98;95228.38;4912805;28;103030;-54
2022/01/07 05:03:16;;;;;;;6.03;5.47;;;;;;;23.09;30.92;95224.16;4903160;28;102931;-54
2022/01/07 05:05:49;;;;;;;5.93;5.40;;;;;;;23.16;31.10;95215.72;4917417;28;103150;-55
2022/01/07 05:08:16;;;;;;;6.07;5.47;;;;;;;23.19;31.35;95215.13;4939533;28;102791;-55
2022/01/07 05:10:42;;;;;;;6.47;5.70;;;;;;;23.19;31.15;95225.03;4918811;28;102812;-53
2022/01/07 05:13:08;;;;;;;5.40;5.00;;;;;;;23.23;31.34;95231.31;4910469;28;103207;-54
2022/01/07 05:15:35;;;;;;;5.90;5.07;;;;;;;23.26;30.90;95228.03;4915229;28;103426;-53
2022/01/07 05:18:01;;;;;;;4.63;4.33;;;;;;;23.23;29.75;95229.44;4924831;28;103388;-53
2022/01/07 05:20:26;;;;;;;7.37;5.10;;;;;;;23.19;29.14;95222.34;4912926;28;102648;-53
2022/01/07 05:22:52;;;;;;;8.60;4.37;;;;;;;23.20;29.04;95219.38;4908940;28;102663;-55
2022/01/07 05:25:18;;;;;;;4.80;4.40;;;;;;;23.18;30.73;95226.91;4897511;28;103433;-55
2022/01/07 05:27:44;;;;;;;4.43;4.10;;;;;;;23.13;31.15;95226.19;4898012;28;102748;-54
2022/01/07 05:30:11;;;;;;;6.23;4.90;;;;;;;23.06;30.90;95227.41;4898137;28;103246;-54
2022/01/07 05:32:37;;;;;;;5.27;4.50;;;;;;;23.07;30.72;95222.88;4897382;28;103450;-54
2022/01/07 05:35:03;;;;;;;5.00;4.13;;;;;;;23.04;31.51;95223.47;4896355;28;103994;-54
2022/01/07 05:37:29;;;;;;;4.73;4.43;;;;;;;23.03;30.86;95220.03;4897728;28;103150;-54
2022/01/07 05:39:57;;;;;;;4.97;4.57;;;;;;;23.02;30.77;95228.31;4897360;28;103328;-54
2022/01/07 05:42:22;;;;;;;4.60;4.17;;;;;;;23.01;31.05;95234.72;4897350;28;103382;-55
2022/01/07 05:44:48;;;;;;;4.77;4.37;;;;;;;23.03;31.06;95230.69;4897473;28;102729;-54
2022/01/07 05:47:13;;;;;;;4.97;4.47;;;;;;;23.04;31.06;95229.59;4896666;28;103095;-54
2022/01/07 05:49:39;;;;;;;5.60;5.10;;;;;;;23.05;30.99;95241.03;4897355;28;102664;-54
2022/01/07 05:52:05;;;;;;;4.73;4.33;;;;;;;23.05;30.62;95241.84;4897095;28;102932;-55
2022/01/07 05:54:30;;;;;;;4.93;4.53;;;;;;;23.08;30.92;95251.09;4898021;28;103310;-54
2022/01/07 05:56:56;;;;;;;5.57;5.17;;;;;;;23.08;30.90;95254.56;4896200;28;103391;-55
2022/01/07 05:59:21;;;;;;;4.47;4.07;;;;;;;23.04;30.85;95250.91;4879537;28;102885;-54
2022/01/07 06:01:47;;;;;;;5.13;4.73;;;;;;;23.02;31.01;95258.44;4897588;28;103643;-54
2022/01/07 06:04:12;;;;;;;5.07;4.57;;;;;;;23.03;31.05;95248.56;4896693;28;103470;-54
2022/01/07 06:06:38;;;;;;;4.60;4.30;;;;;;;23.02;31.00;95258.44;4895356;28;104891;-54
2022/01/07 06:09:04;;;;;;;4.63;4.23;;;;;;;23.02;31.04;95260.31;4895171;28;102907;-55
2022/01/07 06:11:29;;;;;;;7.47;3.77;;;;;;;23.01;30.69;95256.84;4897036;28;102626;-54
2022/01/07 06:13:55;;;;;;;4.53;4.23;;;;;;;23.03;30.56;95261.88;4896605;28;102623;-54
2022/01/07 06:16:20;;;;;;;4.50;4.13;;;;;;;23.01;30.91;95259.50;4923666;28;102767;-54
2022/01/07 06:18:53;;;;;;;4.87;4.07;;;;;;;22.98;30.93;95273.41;4934583;28;102781;-54
2022/01/07 06:21:19;;;;;;;4.70;4.30;;;;;;;22.97;30.95;95261.19;4934514;28;103633;-54
2022/01/07 06:23:45;;;;;;;4.73;4.33;;;;;;;23.00;30.96;95273.09;4935562;28;103357;-54
2022/01/07 06:26:11;;;;;;;4.73;4.43;;;;;;;22.97;30.49;95269.16;4935399;28;102684;-54
2022/01/07 06:28:36;;;;;;;4.77;4.37;;;;;;;23.02;30.73;95281.63;4935111;28;102862;-55
2022/01/07 06:31:02;;;;;;;5.07;4.67;;;;;;;23.03;30.75;95273.31;4934855;28;103466;-54
2022/01/07 06:33:28;;;;;;;4.33;4.03;;;;;;;23.04;30.76;95271.44;4935053;28;102910;-54
2022/01/07 06:35:54;;;;;;;4.07;3.70;;;;;;;23.04;30.60;95271.44;4935256;28;102767;-54
2022/01/07 06:38:19;;;;;;;4.80;4.40;;;;;;;23.04;30.56;95271.44;4935136;28;102959;-54
2022/01/07 06:40:45;;;;;;;4.33;3.90;;;;;;;23.06;30.38;95274.59;4934930;28;103422;-54
2022/01/07 06:43:10;;;;;;;4.27;3.97;;;;;;;23.06;30.53;95266.59;4934956;28;103431;-54
2022/01/07 06:45:36;;;;;;;4.70;4.30;;;;;;;23.04;30.41;95272.22;4935000;28;102859;-54
2022/01/07 06:48:01;;;;;;;4.27;3.97;;;;;;;23.05;30.58;95273.81;4935429;28;102750;-55
2022/01/07 06:50:27;;;;;;;4.50;4.20;;;;;;;23.04;30.54;95279.44;4935346;28;103751;-55
2022/01/07 06:52:53;;;;;;;4.40;4.10;;;;;;;23.07;30.71;95292.16;4934291;28;102687;-54
2022/01/07 06:55:18;;;;;;;3.70;3.50;;;;;;;23.11;30.57;95279.81;4935162;28;102636;-54
2022/01/07 06:57:44;;;;;;;3.87;3.50;;;;;;;23.15;30.15;95280.78;4934914;28;102664;-54
2022/01/07 07:00:10;;;;;;;4.37;3.97;;;;;;;23.17;30.13;95283.16;4934744;28;103520;-54
2022/01/07 07:02:36;;;;;;;4.00;3.77;;;;;;;23.18;30.27;95285.53;4934020;28;103326;-54
2022/01/07 07:05:01;;;;;;;3.67;3.47;;;;;;;23.19;29.97;95281.00;4933728;28;103413;-55
2022/01/07 07:07:27;;;;;;;4.20;3.90;;;;;;;23.26;30.01;95287.47;4935867;28;102894;-54
2022/01/07 07:09:53;;;;;;;3.83;3.60;;;;;;;23.36;30.08;95289.13;4938998;28;103247;-56
2022/01/07 07:12:18;;;;;;;3.97;3.70;;;;;;;23.41;29.98;95292.47;4935772;28;102885;-55
2022/01/07 07:14:44;;;;;;;4.13;3.83;;;;;;;23.41;30.38;95297.81;4935285;28;102880;-54
2022/01/07 07:17:11;;;;;;;4.37;4.07;;;;;;;23.43;30.16;95294.84;4916112;28;103315;-54
2022/01/07 07:19:37;;;;;;;3.90;3.60;;;;;;;23.41;30.56;95287.13;4914666;28;102742;-54
2022/01/07 07:22:03;;;;;;;4.53;3.87;;;;;;;23.42;30.47;95299.38;4915424;28;102765;-54
2022/01/07 07:24:28;;;;;;;3.70;3.50;;;;;;;23.41;30.00;95289.81;4914949;28;103387;-54
2022/01/07 07:26:54;;;;;;;3.90;3.60;;;;;;;23.45;29.78;95289.97;4914824;28;102941;-55
2022/01/07 07:29:19;;;;;;;3.77;3.33;;;;;;;23.45;30.45;95289.97;4915225;28;103275;-54
2022/01/07 07:31:49;;;;;;;4.67;4.27;;;;;;;23.47;30.04;95287.81;4929488;28;104475;-54
2022/01/07 07:37:07;;;;;;;3.63;3.33;;;;;;;23.46;30.19;95293.44;4893163;28;102986;-55
2022/01/07 07:39:34;;;;;;;3.97;3.67;;;;;;;23.45;30.11;95297.19;4917958;28;104072;-55
2022/01/07 07:41:59;;;;;;;4.13;3.83;;;;;;;23.44;30.17;95292.94;4918718;28;103380;-54
2022/01/07 07:44:25;;;;;;;3.70;3.50;;;;;;;23.43;30.03;95292.16;4918641;28;103754;-54
2022/01/07 07:46:51;;;;;;;3.83;3.43;;;;;;;23.41;30.18;95292.47;4918719;28;103448;-55
2022/01/07 07:49:18;;;;;;;4.07;3.77;;;;;;;23.41;30.37;95299.69;4918033;28;103573;-54
2022/01/07 07:51:46;;;;;;;3.57;3.37;;;;;;;23.40;30.04;95296.22;4917616;28;102638;-56
2022/01/07 07:54:12;;;;;;;4.10;3.80;;;;;;;23.41;30.27;95307.69;4918392;28;102755;-55
2022/01/07 07:56:38;;;;;;;4.00;3.70;;;;;;;23.40;30.02;95306.91;4917814;28;102822;-54
2022/01/07 07:59:04;;;;;;;4.40;4.07;;;;;;;23.40;29.95;95306.09;4917427;28;102692;-54
2022/01/07 08:01:29;;;;;;;3.43;3.23;;;;;;;23.41;30.00;95307.69;4919095;28;103294;-54
2022/01/07 08:03:55;;;;;;;4.10;3.80;;;;;;;23.40;29.94;95303.44;4917673;28;103075;-55
2022/01/07 08:06:21;;;;;;;5.43;5.00;;;;;;;23.39;30.31;95297.31;4917990;28;102837;-55
2022/01/07 08:08:47;;;;;;;4.93;4.60;;;;;;;23.39;30.17;95301.88;4917511;28;103843;-54
2022/01/07 08:11:13;;;;;;;5.20;4.83;;;;;;;23.39;30.54;95305.31;4917457;28;103549;-54
2022/01/07 08:16:31;;;;;;;7.30;6.60;;;;;;;23.38;30.43;95303.75;4916323;28;103101;-55
2022/01/07 08:18:58;;;;;;;8.37;7.67;;;;;;;23.38;30.14;95303.75;4937155;28;102841;-55
2022/01/07 08:21:27;;;;;;;8.40;7.70;;;;;;;23.39;29.85;95299.19;4938355;28;103093;-60
2022/01/07 08:23:54;;;;;;;7.50;6.80;;;;;;;23.44;30.11;95296.41;4923243;28;103881;-60
2022/01/07 08:26:20;;;;;;;7.73;7.10;;;;;;;23.47;30.09;95292.34;4940749;28;102767;-59
2022/01/07 08:28:54;;;;;;;7.13;6.53;;;;;;;23.47;29.89;95295.00;4941034;28;102775;-59
2022/01/07 08:34:53;;;;;;;7.40;6.90;;;;;;;23.47;30.19;95290.47;4939694;28;103976;-59
2022/01/07 08:36:54;;;;;;;8.03;7.33;;;;;;;23.48;29.76;95289.38;4940695;28;102721;-60
2022/01/07 08:39:19;;;;;;;7.47;6.77;;;;;;;23.49;29.52;95287.50;4940655;28;102780;-60
2022/01/07 08:41:45;;;;;;;7.50;6.90;;;;;;;23.49;29.69;95285.63;4939979;28;102628;-60
2022/01/07 08:44:11;;;;;;;6.93;6.43;;;;;;;23.49;29.82;95290.94;4939647;28;103472;-60
2022/01/07 08:46:37;;;;;;;7.17;6.67;;;;;;;23.47;29.92;95279.81;4941284;28;102778;-60
2022/01/07 08:49:05;;;;;;;7.67;7.07;;;;;;;23.49;29.84;95280.28;4939851;28;102845;-55
2022/01/07 08:51:30;;;;;;;8.00;7.40;;;;;;;23.49;29.89;95277.63;4937830;28;102685;-54
2022/01/07 08:53:57;;;;;;;7.20;6.50;;;;;;;23.49;29.73;95277.63;4936704;28;102857;-57
2022/01/07 08:56:24;;;;;;;6.70;6.10;;;;;;;23.46;29.75;95274.78;4936856;28;103013;-57
2022/01/07 08:58:51;;;;;;;7.03;6.53;;;;;;;23.44;29.83;95269.75;4936558;28;102688;-57
2022/01/07 09:01:17;;;;;;;7.50;6.90;;;;;;;23.43;30.12;95276.16;4936156;28;103177;-57
2022/01/07 09:03:43;;;;;;;7.03;6.53;;;;;;;23.42;30.15;95266.59;4936033;28;102941;-56
2022/01/07 09:06:08;;;;;;;8.17;7.47;;;;;;;23.40;29.92;95269.56;4937073;28;102676;-56
2022/01/07 09:08:34;;;;;;;7.70;7.10;;;;;;;23.40;30.16;95268.78;4937030;28;102633;-56
2022/01/07 09:11:00;;;;;;;7.00;6.40;;;;;;;23.40;30.14;95268.78;4936588;28;103390;-56
2022/01/07 09:13:26;;;;;;;7.30;6.70;;;;;;;23.39;29.88;95269.88;4937289;28;102855;-56
2022/01/07 09:15:51;;;;;;;6.70;6.10;;;;;;;23.38;29.56;95266.41;4926636;28;102865;-56
2022/01/07 09:18:18;;;;;;;6.70;6.20;;;;;;;23.38;29.95;95268.28;4917013;28;103002;-56
2022/01/07 09:20:45;;;;;;;6.70;6.20;;;;;;;23.38;29.83;95262.97;4917368;28;103458;-56
2022/01/07 09:23:11;;;;;;;6.80;6.30;;;;;;;23.38;29.54;95260.28;4917348;28;102978;-57
2022/01/07 09:25:38;;;;;;;7.23;6.60;;;;;;;23.37;30.07;95261.38;4916889;28;102763;-56
2022/01/07 09:28:05;;;;;;;7.00;6.50;;;;;;;23.36;29.57;95252.59;4917076;28;103571;-56
2022/01/07 09:30:31;;;;;;;6.97;6.47;;;;;;;23.36;30.25;95252.59;4916876;28;103507;-56
2022/01/07 09:32:58;;;;;;;6.87;6.30;;;;;;;23.35;29.42;95250.25;4916452;28;102773;-56
2022/01/07 09:35:24;;;;;;;7.03;6.43;;;;;;;23.33;29.97;95249.72;4917158;28;102910;-57
2022/01/07 09:37:50;;;;;;;7.67;7.07;;;;;;;23.31;29.85;95252.69;4916129;28;103012;-57
2022/01/07 09:40:17;;;;;;;7.33;6.70;;;;;;;23.31;29.66;95254.56;4916353;28;102650;-57
2022/01/07 09:42:59;;;;;;;7.97;7.37;;;;;;;23.30;29.66;95242.34;4917258;28;103419;-57
2022/01/07 09:45:27;;;;;;;9.63;8.83;;;;;;;23.30;30.08;95239.66;4916922;28;102704;-57
2022/01/07 09:47:54;;;;;;;9.93;9.13;;;;;;;23.29;29.91;95236.22;4916373;28;103541;-58
2022/01/07 09:50:20;;;;;;;10.33;9.43;;;;;;;23.29;30.44;95235.44;4917004;28;103951;-56
2022/01/07 09:52:46;;;;;;;10.50;9.63;;;;;;;23.28;30.24;95229.31;4916940;28;102756;-58
2022/01/07 09:55:12;;;;;;;9.03;8.33;;;;;;;23.28;30.04;95231.19;4916421;28;102775;-57
2022/01/07 09:57:37;;;;;;;11.20;10.10;;;;;;;23.26;30.20;95230.72;4916284;28;102924;-57
2022/01/07 10:00:05;;;;;;;8.17;7.47;;;;;;;23.26;30.08;95222.72;4915654;28;103365;-57
2022/01/07 10:02:30;;;;;;;8.90;8.20;;;;;;;23.24;30.29;95220.34;4916284;28;102848;-57
2022/01/07 10:04:56;;;;;;;9.37;8.57;;;;;;;23.23;30.57;95220.66;4917025;28;102752;-57
2022/01/07 10:07:25;;;;;;;11.07;10.07;;;;;;;23.22;30.72;95224.41;4916297;28;103400;-57
2022/01/07 10:10:08;;;;;;;12.10;11.10;;;;;;;23.23;30.22;95224.09;4914909;28;102743;-57
2022/01/07 10:13:04;;;;;;;11.77;10.87;;;;;;;23.23;30.18;95223.31;4916153;28;102741;-57
2022/01/07 10:15:34;;;;;;;14.23;13.13;;;;;;;23.22;30.63;95213.75;4922831;28;103341;-57
2022/01/07 10:18:03;;;;;;;13.17;12.07;;;;;;;23.21;30.58;95220.97;4935736;28;103113;-57
2022/01/07 10:20:32;;;;;;;17.53;16.13;;;;;;;23.22;30.49;95219.88;4935140;28;103474;-57
2022/01/07 10:23:07;;;;;;;17.10;15.53;;;;;;;23.22;30.26;95219.06;4935635;28;102674;-57
2022/01/07 10:25:38;;;;;;;23.87;21.77;;;;;;;23.22;30.46;95225.19;4936081;28;102782;-57
2022/01/07 10:28:05;;;;;;;14.93;13.63;;;;;;;23.24;29.98;95216.91;4935843;28;102732;-57
2022/01/07 10:30:38;;;;;;;18.50;17.00;;;;;;;23.23;30.00;95218.00;4935485;28;103446;-57
2022/01/07 10:33:29;;;;;;;32.57;29.73;;;;;;;23.22;30.08;95206.53;4934886;28;104308;-57
2022/01/07 10:36:15;;;;;;;19.67;17.90;;;;;;;23.24;30.49;95200.91;4930677;28;102975;-63
2022/01/07 10:38:53;;;;;;;19.80;18.10;;;;;;;23.30;30.12;95195.13;4935397;28;102848;-54
2022/01/07 10:41:19;;;;;;;18.87;17.27;;;;;;;23.40;29.55;95194.13;4935760;28;103473;-54
2022/01/07 10:43:46;;;;;;;19.47;17.83;;;;;;;23.45;29.67;95191.31;4934607;28;103020;-53
2022/01/07 10:46:11;;;;;;;18.50;17.07;;;;;;;23.50;29.46;95191.19;4935275;28;102645;-53
2022/01/07 10:48:42;;;;;;;17.60;16.10;;;;;;;23.53;29.28;95187.94;4935379;28;102950;-53
2022/01/07 10:51:11;;;;;;;17.83;16.23;;;;;;;23.55;29.31;95187.63;4935734;28;102717;-53
2022/01/07 10:53:38;;;;;;;17.10;15.60;;;;;;;23.59;29.29;95191.28;4935389;28;103398;-54
2022/01/07 10:56:12;;;;;;;16.60;15.20;;;;;;;23.59;29.13;95184.06;4935202;28;102737;-54
2022/01/07 10:58:59;;;;;;;15.93;14.63;;;;;;;23.60;29.10;95193.66;4935296;28;102799;-54
2022/01/07 11:01:28;;;;;;;15.20;14.03;;;;;;;23.61;29.42;95184.53;4935380;28;103655;-54
2022/01/07 11:03:58;;;;;;;15.73;14.50;;;;;;;23.62;28.92;95185.34;4935128;28;102769;-54
2022/01/07 11:06:25;;;;;;;15.17;13.87;;;;;;;23.62;29.26;95182.66;4935108;28;103430;-53
2022/01/07 11:08:53;;;;;;;15.30;14.00;;;;;;;23.62;29.36;95174.66;4940835;28;102757;-53
2022/01/07 11:11:20;;;;;;;14.27;13.17;;;;;;;23.62;29.14;95174.66;4942124;28;103462;-52
2022/01/07 11:13:46;;;;;;;14.27;13.13;;;;;;;23.61;28.83;95173.88;4924010;28;102913;-53
2022/01/07 11:16:12;;;;;;;13.70;12.60;;;;;;;23.63;29.16;95170.91;4928241;28;102675;-53
2022/01/07 11:18:39;;;;;;;14.60;13.40;;;;;;;23.63;29.33;95177.03;4921912;28;103285;-53
2022/01/07 11:21:06;;;;;;;13.40;12.30;;;;;;;23.62;29.26;95170.13;4922604;28;103323;-53
2022/01/07 11:23:37;;;;;;;13.30;12.20;;;;;;;23.63;28.86;95166.34;4922045;28;102700;-53
2022/01/07 11:26:08;;;;;;;13.23;12.07;;;;;;;23.64;29.14;95162.59;4922597;28;102766;-53
2022/01/07 11:28:35;;;;;;;12.90;11.80;;;;;;;23.63;28.79;95157.56;4921275;28;102727;-53